sensor_id;sensor_type;location;lat;lon;timestamp;temperature;humidity
7498;DHT22;3790;48.806;9.140;2023-07-13T00:03:04;19.50;99.90
7498;DHT22;3790;48.806;9.140;2023-07-13T00:08:05;19.40;99.90
7498;DHT22;3790;48.806;9.140;2023-07-13T00:13:05;19.20;99.90
7498;DHT22;3790;48.806;9.140;2023-07-13T00:18:06;19.20;99.90
7498;DHT22;3790;48.806;9.140;2023-07-13T00:23:06;19.10;99.90
7498;DHT22;3790;48.806;9.140;2023-07-13T00:28:07;19.00;99.90
7498;DHT22;3790;48.806;9.140;2023-07-13T00:33:07;19.00;99.90
7498;DHT22;3790;48.806;9.140;2023-07-13T00:38:08;18.90;99.90
7498;DHT22;3790;48.806;9.140;2023-07-13T00:43:16;18.80;99.90
7498;DHT22;3790;48.806;9.140;2023-07-13T00:48:22;18.70;99.90
7498;DHT22;3790;48.806;9.140;2023-07-13T00:53:25;18.60;99.90
7498;DHT22;3790;48.806;9.140;2023-07-13T00:58:26;18.50;99.90
7498;DHT22;3790;48.806;9.140;2023-07-13T01:03:28;18.50;99.90
7498;DHT22;3790;48.806;9.140;2023-07-13T01:08:29;18.60;99.90
7498;DHT22;3790;48.806;9.140;2023-07-13T01:13:30;18.50;99.90
7498;DHT22;3790;48.806;9.140;2023-07-13T01:18:31;18.50;99.90
7498;DHT22;3790;48.806;9.140;2023-07-13T01:23:32;18.40;99.90
7498;DHT22;3790;48.806;9.140;2023-07-13T01:28:35;18.40;99.90
7498;DHT22;3790;48.806;9.140;2023-07-13T01:33:39;18.30;99.90
7498;DHT22;3790;48.806;9.140;2023-07-13T01:38:39;18.20;99.90
7498;DHT22;3790;48.806;9.140;2023-07-13T01:43:40;18.10;99.90
7498;DHT22;3790;48.806;9.140;2023-07-13T01:48:41;18.10;99.90
7498;DHT22;3790;48.806;9.140;2023-07-13T01:53:41;18.10;99.90
7498;DHT22;3790;48.806;9.140;2023-07-13T01:58:41;18.00;99.90
7498;DHT22;3790;48.806;9.140;2023-07-13T02:03:45;18.00;99.90
7498;DHT22;3790;48.806;9.140;2023-07-13T02:08:46;18.00;99.90
7498;DHT22;3790;48.806;9.140;2023-07-13T02:13:47;18.00;99.90
7498;DHT22;3790;48.806;9.140;2023-07-13T02:18:48;17.90;99.90
7498;DHT22;3790;48.806;9.140;2023-07-13T02:23:48;17.90;99.90
7498;DHT22;3790;48.806;9.140;2023-07-13T02:28:49;17.80;99.90
7498;DHT22;3790;48.806;9.140;2023-07-13T02:33:50;17.70;99.90
7498;DHT22;3790;48.806;9.140;2023-07-13T02:38:50;17.70;99.90
7498;DHT22;3790;48.806;9.140;2023-07-13T02:43:51;17.70;99.90
7498;DHT22;3790;48.806;9.140;2023-07-13T02:48:51;17.60;99.90
7498;DHT22;3790;48.806;9.140;2023-07-13T02:53:53;17.50;99.90
7498;DHT22;3790;48.806;9.140;2023-07-13T02:58:54;17.50;99.90
7498;DHT22;3790;48.806;9.140;2023-07-13T03:03:55;17.50;99.90
7498;DHT22;3790;48.806;9.140;2023-07-13T03:08:56;17.40;99.90
7498;DHT22;3790;48.806;9.140;2023-07-13T03:13:57;17.40;99.90
7498;DHT22;3790;48.806;9.140;2023-07-13T03:18:57;17.40;99.90
7498;DHT22;3790;48.806;9.140;2023-07-13T03:23:58;17.50;99.90
7498;DHT22;3790;48.806;9.140;2023-07-13T03:28:58;17.60;99.90
7498;DHT22;3790;48.806;9.140;2023-07-13T03:33:59;17.70;99.90
7498;DHT22;3790;48.806;9.140;2023-07-13T03:39:01;17.90;99.90
7498;DHT22;3790;48.806;9.140;2023-07-13T03:44:02;18.10;99.90
7498;DHT22;3790;48.806;9.140;2023-07-13T03:49:04;18.30;99.90
7498;DHT22;3790;48.806;9.140;2023-07-13T03:54:05;18.40;99.90
7498;DHT22;3790;48.806;9.140;2023-07-13T03:59:06;18.50;99.90
7498;DHT22;3790;48.806;9.140;2023-07-13T04:04:07;18.60;99.90
7498;DHT22;3790;48.806;9.140;2023-07-13T04:09:08;18.60;99.90
7498;DHT22;3790;48.806;9.140;2023-07-13T04:14:09;18.40;99.90
7498;DHT22;3790;48.806;9.140;2023-07-13T04:19:10;18.40;99.90
7498;DHT22;3790;48.806;9.140;2023-07-13T04:24:10;18.40;99.90
7498;DHT22;3790;48.806;9.140;2023-07-13T04:29:11;18.30;99.90
7498;DHT22;3790;48.806;9.140;2023-07-13T04:34:11;18.40;99.90
7498;DHT22;3790;48.806;9.140;2023-07-13T04:39:12;18.20;99.90
7498;DHT22;3790;48.806;9.140;2023-07-13T04:44:12;18.00;99.90
7498;DHT22;3790;48.806;9.140;2023-07-13T04:49:13;17.80;99.90
7498;DHT22;3790;48.806;9.140;2023-07-13T04:54:13;17.80;99.90
7498;DHT22;3790;48.806;9.140;2023-07-13T04:59:14;17.80;99.90
7498;DHT22;3790;48.806;9.140;2023-07-13T05:04:14;18.10;99.90
7498;DHT22;3790;48.806;9.140;2023-07-13T05:09:15;18.30;99.90
7498;DHT22;3790;48.806;9.140;2023-07-13T05:14:15;19.30;99.90
7498;DHT22;3790;48.806;9.140;2023-07-13T05:19:16;21.50;99.90
7498;DHT22;3790;48.806;9.140;2023-07-13T05:24:17;21.30;99.90
7498;DHT22;3790;48.806;9.140;2023-07-13T05:29:17;21.20;99.90
7498;DHT22;3790;48.806;9.140;2023-07-13T05:34:18;20.70;99.90
7498;DHT22;3790;48.806;9.140;2023-07-13T05:39:19;20.60;99.90
7498;DHT22;3790;48.806;9.140;2023-07-13T05:44:19;20.90;99.90
7498;DHT22;3790;48.806;9.140;2023-07-13T05:49:20;20.90;99.90
7498;DHT22;3790;48.806;9.140;2023-07-13T05:54:21;20.50;99.90
7498;DHT22;3790;48.806;9.140;2023-07-13T05:59:21;20.40;99.90
7498;DHT22;3790;48.806;9.140;2023-07-13T06:04:22;20.50;99.90
7498;DHT22;3790;48.806;9.140;2023-07-13T06:09:22;20.90;99.90
7498;DHT22;3790;48.806;9.140;2023-07-13T06:14:23;21.20;99.90
7498;DHT22;3790;48.806;9.140;2023-07-13T06:19:23;21.40;99.90
7498;DHT22;3790;48.806;9.140;2023-07-13T06:24:24;21.60;99.90
7498;DHT22;3790;48.806;9.140;2023-07-13T06:29:25;21.80;99.90
7498;DHT22;3790;48.806;9.140;2023-07-13T06:34:27;21.80;99.90
7498;DHT22;3790;48.806;9.140;2023-07-13T06:39:28;21.60;99.90
7498;DHT22;3790;48.806;9.140;2023-07-13T06:44:29;21.70;99.90
7498;DHT22;3790;48.806;9.140;2023-07-13T06:49:29;22.00;99.90
7498;DHT22;3790;48.806;9.140;2023-07-13T06:54:30;22.20;99.90
7498;DHT22;3790;48.806;9.140;2023-07-13T06:59:30;22.40;99.90
7498;DHT22;3790;48.806;9.140;2023-07-13T07:04:30;22.30;99.90
7498;DHT22;3790;48.806;9.140;2023-07-13T07:09:31;23.00;99.90
7498;DHT22;3790;48.806;9.140;2023-07-13T07:14:32;22.70;99.90
7498;DHT22;3790;48.806;9.140;2023-07-13T07:19:35;22.40;99.90
7498;DHT22;3790;48.806;9.140;2023-07-13T07:24:35;22.40;99.90
7498;DHT22;3790;48.806;9.140;2023-07-13T07:29:36;22.00;99.90
7498;DHT22;3790;48.806;9.140;2023-07-13T07:34:36;21.80;99.90
7498;DHT22;3790;48.806;9.140;2023-07-13T07:39:37;21.60;99.90
7498;DHT22;3790;48.806;9.140;2023-07-13T07:44:39;21.30;99.90
7498;DHT22;3790;48.806;9.140;2023-07-13T07:49:40;21.50;99.90
7498;DHT22;3790;48.806;9.140;2023-07-13T07:54:41;21.70;99.90
7498;DHT22;3790;48.806;9.140;2023-07-13T07:59:41;21.80;99.90
7498;DHT22;3790;48.806;9.140;2023-07-13T08:04:42;21.80;99.90
7498;DHT22;3790;48.806;9.140;2023-07-13T08:09:42;21.90;99.90
7498;DHT22;3790;48.806;9.140;2023-07-13T08:14:43;21.80;99.90
7498;DHT22;3790;48.806;9.140;2023-07-13T08:19:46;21.90;99.90
7498;DHT22;3790;48.806;9.140;2023-07-13T08:24:47;21.90;99.90
7498;DHT22;3790;48.806;9.140;2023-07-13T08:29:56;22.10;99.90
7498;DHT22;3790;48.806;9.140;2023-07-13T08:34:56;22.10;99.90
7498;DHT22;3790;48.806;9.140;2023-07-13T08:39:57;22.20;99.90
7498;DHT22;3790;48.806;9.140;2023-07-13T08:45:06;22.40;99.90
7498;DHT22;3790;48.806;9.140;2023-07-13T08:50:14;22.50;99.90
7498;DHT22;3790;48.806;9.140;2023-07-13T08:55:18;22.30;99.90
7498;DHT22;3790;48.806;9.140;2023-07-13T09:00:31;22.40;99.90
7498;DHT22;3790;48.806;9.140;2023-07-13T09:05:38;22.50;99.90
7498;DHT22;3790;48.806;9.140;2023-07-13T09:10:44;22.80;99.90
7498;DHT22;3790;48.806;9.140;2023-07-13T09:15:46;23.20;99.90
7498;DHT22;3790;48.806;9.140;2023-07-13T09:21:18;23.70;99.50
7498;DHT22;3790;48.806;9.140;2023-07-13T09:26:22;24.30;98.50
7498;DHT22;3790;48.806;9.140;2023-07-13T09:31:34;25.00;96.90
7498;DHT22;3790;48.806;9.140;2023-07-13T09:36:37;24.70;96.20
7498;DHT22;3790;48.806;9.140;2023-07-13T09:46:57;24.60;96.20
7498;DHT22;3790;48.806;9.140;2023-07-13T09:52:11;24.20;97.30
7498;DHT22;3790;48.806;9.140;2023-07-13T09:57:14;24.50;96.20
7498;DHT22;3790;48.806;9.140;2023-07-13T10:07:31;24.50;96.30
7498;DHT22;3790;48.806;9.140;2023-07-13T10:12:37;24.30;96.70
7498;DHT22;3790;48.806;9.140;2023-07-13T10:17:39;24.90;95.80
7498;DHT22;3790;48.806;9.140;2023-07-13T10:27:52;26.20;93.50
7498;DHT22;3790;48.806;9.140;2023-07-13T10:32:54;25.80;93.20
7498;DHT22;3790;48.806;9.140;2023-07-13T10:38:03;26.10;93.40
7498;DHT22;3790;48.806;9.140;2023-07-13T10:43:27;26.70;92.20
7498;DHT22;3790;48.806;9.140;2023-07-13T10:48:28;27.00;91.30
7498;DHT22;3790;48.806;9.140;2023-07-13T10:53:35;27.10;91.10
7498;DHT22;3790;48.806;9.140;2023-07-13T10:58:38;26.90;91.90
7498;DHT22;3790;48.806;9.140;2023-07-13T11:04:00;26.40;91.40
7498;DHT22;3790;48.806;9.140;2023-07-13T11:14:37;25.60;91.40
7498;DHT22;3790;48.806;9.140;2023-07-13T11:19:40;25.40;92.10
7498;DHT22;3790;48.806;9.140;2023-07-13T11:29:52;26.10;91.60
7498;DHT22;3790;48.806;9.140;2023-07-13T11:35:14;26.60;91.30
7498;DHT22;3790;48.806;9.140;2023-07-13T11:40:17;26.30;90.90
7498;DHT22;3790;48.806;9.140;2023-07-13T11:45:20;27.10;91.30
7498;DHT22;3790;48.806;9.140;2023-07-13T11:50:24;30.60;82.70
7498;DHT22;3790;48.806;9.140;2023-07-13T11:55:24;34.00;75.20
7498;DHT22;3790;48.806;9.140;2023-07-13T12:00:32;35.10;63.60
7498;DHT22;3790;48.806;9.140;2023-07-13T12:05:55;36.40;61.40
7498;DHT22;3790;48.806;9.140;2023-07-13T12:11:00;36.20;55.30
7498;DHT22;3790;48.806;9.140;2023-07-13T12:16:01;33.10;57.60
7498;DHT22;3790;48.806;9.140;2023-07-13T12:21:02;33.10;57.10
7498;DHT22;3790;48.806;9.140;2023-07-13T12:26:04;32.80;57.20
7498;DHT22;3790;48.806;9.140;2023-07-13T12:31:08;29.90;59.40
7498;DHT22;3790;48.806;9.140;2023-07-13T12:36:18;29.80;62.10
7498;DHT22;3790;48.806;9.140;2023-07-13T12:41:19;31.40;59.80
7498;DHT22;3790;48.806;9.140;2023-07-13T12:46:24;31.70;57.70
7498;DHT22;3790;48.806;9.140;2023-07-13T12:51:28;29.90;59.40
7498;DHT22;3790;48.806;9.140;2023-07-13T12:56:29;30.00;61.10
7498;DHT22;3790;48.806;9.140;2023-07-13T13:01:34;30.30;59.80
7498;DHT22;3790;48.806;9.140;2023-07-13T13:06:37;30.30;59.70
7498;DHT22;3790;48.806;9.140;2023-07-13T13:11:37;29.30;60.70
7498;DHT22;3790;48.806;9.140;2023-07-13T13:16:48;30.10;59.90
7498;DHT22;3790;48.806;9.140;2023-07-13T13:21:53;28.60;61.30
7498;DHT22;3790;48.806;9.140;2023-07-13T13:26:55;27.30;64.50
7498;DHT22;3790;48.806;9.140;2023-07-13T13:31:57;27.80;62.20
7498;DHT22;3790;48.806;9.140;2023-07-13T13:36:57;27.80;64.60
7498;DHT22;3790;48.806;9.140;2023-07-13T13:41:58;27.30;64.30
7498;DHT22;3790;48.806;9.140;2023-07-13T13:46:58;27.20;65.10
7498;DHT22;3790;48.806;9.140;2023-07-13T13:52:00;27.80;64.70
7498;DHT22;3790;48.806;9.140;2023-07-13T13:57:00;28.30;63.70
7498;DHT22;3790;48.806;9.140;2023-07-13T14:02:01;28.90;64.50
7498;DHT22;3790;48.806;9.140;2023-07-13T14:07:01;28.90;63.30
7498;DHT22;3790;48.806;9.140;2023-07-13T14:12:03;28.30;64.50
7498;DHT22;3790;48.806;9.140;2023-07-13T14:17:05;28.00;65.20
7498;DHT22;3790;48.806;9.140;2023-07-13T14:22:07;27.50;65.20
7498;DHT22;3790;48.806;9.140;2023-07-13T14:27:10;27.20;66.50
7498;DHT22;3790;48.806;9.140;2023-07-13T14:32:12;27.50;64.40
7498;DHT22;3790;48.806;9.140;2023-07-13T14:37:13;27.40;64.50
7498;DHT22;3790;48.806;9.140;2023-07-13T14:42:14;27.40;66.10
7498;DHT22;3790;48.806;9.140;2023-07-13T14:47:15;27.10;66.60
7498;DHT22;3790;48.806;9.140;2023-07-13T14:52:21;27.00;67.30
7498;DHT22;3790;48.806;9.140;2023-07-13T14:57:23;26.80;66.70
7498;DHT22;3790;48.806;9.140;2023-07-13T15:02:34;26.20;68.70
7498;DHT22;3790;48.806;9.140;2023-07-13T15:07:37;26.60;69.60
7498;DHT22;3790;48.806;9.140;2023-07-13T15:12:38;27.00;68.70
7498;DHT22;3790;48.806;9.140;2023-07-13T15:17:41;27.50;67.50
7498;DHT22;3790;48.806;9.140;2023-07-13T15:22:42;27.70;66.80
7498;DHT22;3790;48.806;9.140;2023-07-13T15:27:42;27.90;65.60
7498;DHT22;3790;48.806;9.140;2023-07-13T15:32:44;27.60;66.10
7498;DHT22;3790;48.806;9.140;2023-07-13T15:37:45;27.50;66.60
7498;DHT22;3790;48.806;9.140;2023-07-13T15:42:47;27.70;66.10
7498;DHT22;3790;48.806;9.140;2023-07-13T15:47:49;27.50;67.30
7498;DHT22;3790;48.806;9.140;2023-07-13T15:52:52;27.60;66.10
7498;DHT22;3790;48.806;9.140;2023-07-13T15:57:53;27.70;67.70
7498;DHT22;3790;48.806;9.140;2023-07-13T16:02:54;27.70;64.50
7498;DHT22;3790;48.806;9.140;2023-07-13T16:07:55;27.50;65.90
7498;DHT22;3790;48.806;9.140;2023-07-13T16:12:57;27.40;66.70
7498;DHT22;3790;48.806;9.140;2023-07-13T16:17:58;27.50;66.30
7498;DHT22;3790;48.806;9.140;2023-07-13T16:22:58;27.50;65.40
7498;DHT22;3790;48.806;9.140;2023-07-13T16:28:03;27.50;66.00
7498;DHT22;3790;48.806;9.140;2023-07-13T16:33:05;27.00;65.80
7498;DHT22;3790;48.806;9.140;2023-07-13T16:38:16;27.20;66.60
7498;DHT22;3790;48.806;9.140;2023-07-13T16:43:19;27.20;67.10
7498;DHT22;3790;48.806;9.140;2023-07-13T16:48:22;27.20;65.60
7498;DHT22;3790;48.806;9.140;2023-07-13T16:53:26;26.90;68.20
7498;DHT22;3790;48.806;9.140;2023-07-13T16:58:29;26.80;68.20
7498;DHT22;3790;48.806;9.140;2023-07-13T17:03:33;27.20;68.60
7498;DHT22;3790;48.806;9.140;2023-07-13T17:08:33;27.20;68.30
7498;DHT22;3790;48.806;9.140;2023-07-13T17:13:35;27.00;67.70
7498;DHT22;3790;48.806;9.140;2023-07-13T17:18:39;26.60;68.50
7498;DHT22;3790;48.806;9.140;2023-07-13T17:23:39;26.40;69.20
7498;DHT22;3790;48.806;9.140;2023-07-13T17:28:40;26.20;69.70
7498;DHT22;3790;48.806;9.140;2023-07-13T17:33:43;26.30;69.90
7498;DHT22;3790;48.806;9.140;2023-07-13T17:38:47;26.30;69.90
7498;DHT22;3790;48.806;9.140;2023-07-13T17:43:56;26.00;70.30
7498;DHT22;3790;48.806;9.140;2023-07-13T17:48:57;25.70;71.10
7498;DHT22;3790;48.806;9.140;2023-07-13T17:53:58;25.80;72.40
7498;DHT22;3790;48.806;9.140;2023-07-13T17:58:58;25.60;71.60
7498;DHT22;3790;48.806;9.140;2023-07-13T18:04:00;25.50;72.30
7498;DHT22;3790;48.806;9.140;2023-07-13T18:09:03;25.30;74.00
7498;DHT22;3790;48.806;9.140;2023-07-13T18:14:04;25.10;75.70
7498;DHT22;3790;48.806;9.140;2023-07-13T18:19:15;24.90;76.40
7498;DHT22;3790;48.806;9.140;2023-07-13T18:24:17;24.80;78.00
7498;DHT22;3790;48.806;9.140;2023-07-13T18:29:18;24.50;77.70
7498;DHT22;3790;48.806;9.140;2023-07-13T18:34:19;24.30;79.50
7498;DHT22;3790;48.806;9.140;2023-07-13T18:39:21;24.00;80.20
7498;DHT22;3790;48.806;9.140;2023-07-13T18:44:23;23.70;81.50
7498;DHT22;3790;48.806;9.140;2023-07-13T18:49:23;23.50;82.80
7498;DHT22;3790;48.806;9.140;2023-07-13T18:54:25;23.40;83.10
7498;DHT22;3790;48.806;9.140;2023-07-13T18:59:26;23.10;83.90
7498;DHT22;3790;48.806;9.140;2023-07-13T19:04:30;22.90;86.40
7498;DHT22;3790;48.806;9.140;2023-07-13T19:09:31;22.70;87.90
7498;DHT22;3790;48.806;9.140;2023-07-13T19:14:32;22.40;88.60
7498;DHT22;3790;48.806;9.140;2023-07-13T19:19:32;22.20;89.60
7498;DHT22;3790;48.806;9.140;2023-07-13T19:24:33;22.10;90.90
7498;DHT22;3790;48.806;9.140;2023-07-13T19:29:33;21.80;91.70
7498;DHT22;3790;48.806;9.140;2023-07-13T19:34:36;21.60;92.10
7498;DHT22;3790;48.806;9.140;2023-07-13T19:39:40;21.40;92.60
7498;DHT22;3790;48.806;9.140;2023-07-13T19:44:41;21.30;93.30
7498;DHT22;3790;48.806;9.140;2023-07-13T19:49:43;21.20;93.60
7498;DHT22;3790;48.806;9.140;2023-07-13T19:54:50;21.10;94.00
7498;DHT22;3790;48.806;9.140;2023-07-13T19:59:52;21.10;94.20
7498;DHT22;3790;48.806;9.140;2023-07-13T20:04:54;21.00;94.40
7498;DHT22;3790;48.806;9.140;2023-07-13T20:09:55;20.90;94.80
7498;DHT22;3790;48.806;9.140;2023-07-13T20:14:55;20.80;95.30
7498;DHT22;3790;48.806;9.140;2023-07-13T20:19:57;20.70;96.00
7498;DHT22;3790;48.806;9.140;2023-07-13T20:24:57;20.50;96.60
7498;DHT22;3790;48.806;9.140;2023-07-13T20:29:58;20.40;96.80
7498;DHT22;3790;48.806;9.140;2023-07-13T20:34:59;20.40;97.10
7498;DHT22;3790;48.806;9.140;2023-07-13T20:40:00;20.40;97.40
7498;DHT22;3790;48.806;9.140;2023-07-13T20:45:01;20.40;98.70
7498;DHT22;3790;48.806;9.140;2023-07-13T20:50:02;20.40;97.60
7498;DHT22;3790;48.806;9.140;2023-07-13T20:55:12;20.40;97.60
7498;DHT22;3790;48.806;9.140;2023-07-13T21:00:15;20.40;98.00
7498;DHT22;3790;48.806;9.140;2023-07-13T21:05:22;20.30;99.90
7498;DHT22;3790;48.806;9.140;2023-07-13T21:10:25;20.20;99.90
7498;DHT22;3790;48.806;9.140;2023-07-13T21:15:29;20.20;99.90
7498;DHT22;3790;48.806;9.140;2023-07-13T21:20:33;20.10;99.90
7498;DHT22;3790;48.806;9.140;2023-07-13T21:25:35;20.00;99.90
7498;DHT22;3790;48.806;9.140;2023-07-13T21:30:40;19.80;99.90
7498;DHT22;3790;48.806;9.140;2023-07-13T21:35:42;19.60;99.90
7498;DHT22;3790;48.806;9.140;2023-07-13T21:40:44;19.50;99.90
7498;DHT22;3790;48.806;9.140;2023-07-13T21:45:46;19.50;99.90
7498;DHT22;3790;48.806;9.140;2023-07-13T21:50:56;19.50;99.90
7498;DHT22;3790;48.806;9.140;2023-07-13T21:56:01;19.60;99.90
7498;DHT22;3790;48.806;9.140;2023-07-13T22:01:03;19.70;99.90
7498;DHT22;3790;48.806;9.140;2023-07-13T22:06:08;19.70;99.90
7498;DHT22;3790;48.806;9.140;2023-07-13T22:11:11;19.80;99.90
7498;DHT22;3790;48.806;9.140;2023-07-13T22:16:23;19.70;99.90
7498;DHT22;3790;48.806;9.140;2023-07-13T22:21:24;19.80;99.90
7498;DHT22;3790;48.806;9.140;2023-07-13T22:26:34;19.60;99.90
7498;DHT22;3790;48.806;9.140;2023-07-13T22:31:34;19.50;99.90
7498;DHT22;3790;48.806;9.140;2023-07-13T22:36:35;19.40;99.90
7498;DHT22;3790;48.806;9.140;2023-07-13T22:41:35;19.40;99.90
7498;DHT22;3790;48.806;9.140;2023-07-13T22:46:36;19.30;99.90
7498;DHT22;3790;48.806;9.140;2023-07-13T22:51:36;19.20;99.90
7498;DHT22;3790;48.806;9.140;2023-07-13T22:56:39;19.00;99.90
7498;DHT22;3790;48.806;9.140;2023-07-13T23:01:40;18.80;99.90
7498;DHT22;3790;48.806;9.140;2023-07-13T23:06:41;18.60;99.90
7498;DHT22;3790;48.806;9.140;2023-07-13T23:11:43;18.60;99.90
7498;DHT22;3790;48.806;9.140;2023-07-13T23:16:43;18.60;99.90
7498;DHT22;3790;48.806;9.140;2023-07-13T23:21:50;18.60;99.90
7498;DHT22;3790;48.806;9.140;2023-07-13T23:26:53;18.50;99.90
7498;DHT22;3790;48.806;9.140;2023-07-13T23:31:55;18.50;99.90
7498;DHT22;3790;48.806;9.140;2023-07-13T23:36:55;18.50;99.90
7498;DHT22;3790;48.806;9.140;2023-07-13T23:41:56;18.40;99.90
7498;DHT22;3790;48.806;9.140;2023-07-13T23:46:57;18.40;99.90
7498;DHT22;3790;48.806;9.140;2023-07-13T23:52:00;18.60;99.90
7498;DHT22;3790;48.806;9.140;2023-07-13T23:57:02;18.80;99.90
